Time;durP1;ratioP1;P1;durP2;ratioP2;P2;SDS_P1;SDS_P2;PMS_P1;PMS_P2;Temp;Humidity;BMP_temperature;BMP_pressure;BME280_temperature;BME280_humidity;BME280_pressure;Samples;Min_cycle;Max_cycle;Signal;HPM_P1;HPM_P2
2021/06/01 00:02:20;;;;;;;6.90;1.50;;;17.40;54.90;;;;;;4961648;28;20038;-84
2021/06/01 00:04:47;;;;;;;12.82;1.38;;;17.40;53.50;;;;;;4952850;28;20031;-84
2021/06/01 00:07:13;;;;;;;4.57;1.35;;;17.40;56.80;;;;;;4944962;29;20035;-84
2021/06/01 00:09:39;;;;;;;3.28;1.42;;;17.40;55.20;;;;;;4944976;29;20059;-84
2021/06/01 00:12:05;;;;;;;2.97;1.13;;;17.40;57.20;;;;;;4940013;29;20376;-83
2021/06/01 00:14:31;;;;;;;6.60;1.33;;;17.30;56.00;;;;;;4939612;29;20060;-83
2021/06/01 00:16:57;;;;;;;2.17;1.20;;;17.30;55.90;;;;;;4939525;29;20050;-84
2021/06/01 00:19:23;;;;;;;2.33;1.17;;;17.30;57.70;;;;;;4940657;29;20034;-84
2021/06/01 00:21:49;;;;;;;2.78;1.20;;;17.20;53.90;;;;;;4940613;29;20050;-84
2021/06/01 00:24:14;;;;;;;3.45;1.33;;;17.30;55.10;;;;;;4958258;28;20039;-84
2021/06/01 00:26:43;;;;;;;2.13;1.05;;;17.20;56.40;;;;;;4940484;29;20031;-84
2021/06/01 00:29:10;;;;;;;3.17;0.90;;;17.20;58.20;;;;;;4939646;29;20055;-83
2021/06/01 00:31:39;;;;;;;2.75;1.17;;;17.20;57.80;;;;;;4939713;29;20066;-84
2021/06/01 00:34:06;;;;;;;3.13;1.30;;;17.20;54.80;;;;;;4941038;29;20636;-84
2021/06/01 00:36:31;;;;;;;3.20;1.25;;;17.10;54.40;;;;;;4938813;29;20031;-84
2021/06/01 00:38:57;;;;;;;2.80;1.13;;;17.10;56.10;;;;;;4940537;29;20035;-83
2021/06/01 00:41:23;;;;;;;2.25;1.10;;;17.10;57.70;;;;;;4940407;29;20034;-84
2021/06/01 00:43:48;;;;;;;2.60;1.02;;;17.10;54.20;;;;;;4940864;29;20475;-82
2021/06/01 00:46:14;;;;;;;3.83;1.42;;;17.10;56.60;;;;;;4943462;29;20039;-82
2021/06/01 00:48:40;;;;;;;3.78;1.40;;;17.10;55.30;;;;;;4943439;29;20042;-84
2021/06/01 00:51:06;;;;;;;2.17;1.00;;;17.00;56.70;;;;;;4942708;29;20023;-83
2021/06/01 00:53:31;;;;;;;2.47;1.20;;;17.10;54.60;;;;;;4964651;28;20098;-84
2021/06/01 00:55:58;;;;;;;4.82;1.50;;;17.00;58.70;;;;;;4953014;29;20011;-84
2021/06/01 00:58:25;;;;;;;3.38;1.10;;;17.00;58.10;;;;;;4976679;28;20149;-84
2021/06/01 01:03:36;;;;;;;5.32;1.50;;;16.90;54.70;;;;;;4957444;29;20042;-83
2021/06/01 01:06:08;;;;;;;;;;;16.90;54.20;;;;;;4939944;29;20031;-84
2021/06/01 01:08:48;;;;;;;3.90;1.98;;;16.80;53.50;;;;;;4938423;29;19923;-83
2021/06/01 01:11:14;;;;;;;3.22;1.13;;;16.80;56.40;;;;;;4938852;29;20046;-84
2021/06/01 01:13:52;;;;;;;1.90;1.00;;;16.70;54.40;;;;;;4938680;29;20031;-83
2021/06/01 01:16:20;;;;;;;4.68;1.40;;;16.70;56.90;;;;;;4955854;29;20023;-82
2021/06/01 01:18:55;;;;;;;4.10;1.17;;;16.70;54.60;;;;;;4938884;29;20031;-83
2021/06/01 01:21:45;;;;;;;5.10;1.63;;;16.60;55.90;;;;;;4946420;29;20042;-84
2021/06/01 01:24:46;;;;;;;;;;;16.60;54.70;;;;;;4939814;29;20055;-83
2021/06/01 01:27:23;;;;;;;5.13;1.58;;;16.50;55.40;;;;;;4896614;29;19911;-84
2021/06/01 01:29:50;;;;;;;3.38;1.52;;;16.50;53.50;;;;;;4930624;29;20116;-83
2021/06/01 01:32:29;;;;;;;2.90;1.15;;;16.40;52.90;;;;;;4938999;29;20020;-84
2021/06/01 01:34:58;;;;;;;4.95;1.65;;;16.40;55.40;;;;;;4939188;29;20027;-83
2021/06/01 01:37:26;;;;;;;2.67;1.27;;;16.30;53.80;;;;;;4940168;29;20055;-83
2021/06/01 01:39:57;;;;;;;3.70;1.65;;;16.30;56.90;;;;;;4942305;29;20027;-82
2021/06/01 01:42:27;;;;;;;3.25;1.88;;;16.20;56.90;;;;;;4942402;29;20078;-84
2021/06/01 01:44:54;;;;;;;;;;;16.20;53.30;;;;;;4944494;29;20031;-82
2021/06/01 01:49:59;;;;;;;4.03;1.30;;;16.10;54.90;;;;;;4956558;29;20039;-84
2021/06/01 01:52:26;;;;;;;3.67;1.27;;;16.10;54.10;;;;;;4939209;29;20156;-82
2021/06/01 01:54:55;;;;;;;4.82;1.77;;;16.00;60.00;;;;;;4939375;29;20032;-82
2021/06/01 01:57:23;;;;;;;4.28;2.05;;;16.10;55.30;;;;;;4940479;29;20023;-83
2021/06/01 01:59:49;;;;;;;4.75;1.85;;;16.00;56.70;;;;;;4938862;29;20463;-82
2021/06/01 02:02:15;;;;;;;3.35;1.58;;;16.00;55.40;;;;;;4939288;29;20031;-83
2021/06/01 02:04:43;;;;;;;4.25;1.65;;;15.90;55.30;;;;;;4940520;29;20031;-83
2021/06/01 02:07:09;;;;;;;4.07;1.70;;;15.90;54.40;;;;;;4945915;29;20024;-81
2021/06/01 02:09:37;;;;;;;4.78;1.85;;;15.80;53.90;;;;;;4956477;29;20050;-83
2021/06/01 02:12:03;;;;;;;2.67;1.40;;;15.80;56.10;;;;;;4958552;29;20030;-83
2021/06/01 02:14:29;;;;;;;5.18;2.22;;;15.80;55.80;;;;;;4945491;29;20500;-83
2021/06/01 02:16:57;;;;;;;4.10;1.58;;;15.70;55.80;;;;;;4941573;29;20038;-83
2021/06/01 02:19:23;;;;;;;4.25;1.45;;;15.70;57.50;;;;;;4959237;28;20199;-84
2021/06/01 02:25:01;;;;;;;4.68;1.67;;;15.60;58.40;;;;;;4959219;29;20391;-83
2021/06/01 02:27:38;;;;;;;5.10;1.38;;;15.60;56.10;;;;;;4944390;29;20468;-82
2021/06/01 02:30:10;;;;;;;5.35;2.05;;;15.50;56.80;;;;;;4941818;29;20031;-83
2021/06/01 02:32:46;;;;;;;3.75;1.88;;;15.50;58.00;;;;;;4945773;29;20023;-83
2021/06/01 02:35:25;;;;;;;5.00;2.17;;;15.40;55.30;;;;;;4945128;29;20031;-83
2021/06/01 02:37:52;;;;;;;3.85;1.70;;;15.40;56.40;;;;;;4941430;29;20038;-83
2021/06/01 02:40:21;;;;;;;4.88;1.60;;;15.40;57.60;;;;;;4941474;29;20027;-83
2021/06/01 02:42:48;;;;;;;4.45;2.08;;;15.40;59.80;;;;;;4941623;29;20023;-83
2021/06/01 02:45:18;;;;;;;5.00;2.15;;;15.40;57.70;;;;;;4943420;29;20113;-83
2021/06/01 02:47:44;;;;;;;2.92;1.25;;;15.30;58.60;;;;;;4950177;29;20038;-83
2021/06/01 02:50:12;;;;;;;4.10;1.60;;;15.30;61.50;;;;;;4961038;28;20443;-83
2021/06/01 02:52:40;;;;;;;6.93;1.90;;;15.30;58.60;;;;;;4954497;29;20038;-84
2021/06/01 02:55:08;;;;;;;3.92;1.77;;;15.20;58.00;;;;;;4973788;28;20031;-84
2021/06/01 02:57:34;;;;;;;3.65;1.75;;;15.20;57.60;;;;;;4940484;29;20039;-83
2021/06/01 03:00:01;;;;;;;2.92;1.30;;;15.20;61.20;;;;;;4940952;29;20505;-82
2021/06/01 03:02:28;;;;;;;3.53;1.63;;;15.10;59.60;;;;;;4940453;29;20042;-84
2021/06/01 03:04:55;;;;;;;3.42;1.30;;;15.10;61.30;;;;;;4940517;29;20111;-82
2021/06/01 03:07:24;;;;;;;7.03;2.15;;;15.10;60.70;;;;;;4940418;29;20032;-82
2021/06/01 03:09:49;;;;;;;5.30;2.08;;;15.10;57.80;;;;;;4940660;29;20236;-82
2021/06/01 03:14:53;;;;;;;3.55;1.63;;;15.10;57.90;;;;;;4957896;29;20114;-83
2021/06/01 03:17:19;;;;;;;3.38;1.85;;;15.10;59.80;;;;;;4940211;29;20047;-83
2021/06/01 03:19:44;;;;;;;3.92;2.00;;;15.10;58.60;;;;;;4940795;29;20403;-81
2021/06/01 03:22:10;;;;;;;5.25;2.45;;;15.00;59.00;;;;;;4942522;29;20094;-82
2021/06/01 03:24:36;;;;;;;6.35;2.13;;;15.00;57.00;;;;;;4943253;29;20034;-84
2021/06/01 03:27:02;;;;;;;4.22;1.77;;;14.90;57.50;;;;;;4959744;28;20027;-81
2021/06/01 03:29:28;;;;;;;5.43;2.42;;;14.90;58.50;;;;;;4943782;29;20043;-83
2021/06/01 03:31:54;;;;;;;3.63;1.55;;;14.90;58.00;;;;;;4959480;28;20034;-84
2021/06/01 03:34:22;;;;;;;3.25;1.50;;;14.90;61.10;;;;;;4940605;29;20020;-83
2021/06/01 03:36:48;;;;;;;3.90;1.83;;;14.80;58.50;;;;;;4957334;28;20027;-83
2021/06/01 03:39:13;;;;;;;4.95;1.98;;;14.80;58.10;;;;;;4940662;29;20050;-84
2021/06/01 03:41:39;;;;;;;3.15;1.70;;;14.90;58.00;;;;;;4940282;29;20468;-82
2021/06/01 03:44:05;;;;;;;4.95;2.40;;;14.80;58.30;;;;;;4941272;29;20054;-82
2021/06/01 03:46:30;;;;;;;5.03;2.10;;;14.80;58.30;;;;;;4946414;29;20027;-81
2021/06/01 03:48:56;;;;;;;3.63;1.67;;;14.80;57.50;;;;;;4943922;29;20027;-82
2021/06/01 03:51:21;;;;;;;3.63;1.95;;;14.80;57.10;;;;;;4946709;29;20027;-82
2021/06/01 03:53:48;;;;;;;4.88;1.83;;;14.80;56.90;;;;;;4945018;29;20051;-83
2021/06/01 03:56:15;;;;;;;4.68;1.65;;;14.80;57.50;;;;;;4941948;29;20399;-82
2021/06/01 03:58:41;;;;;;;4.32;1.88;;;14.90;57.30;;;;;;4939819;29;20042;-82
2021/06/01 04:01:06;;;;;;;8.27;2.20;;;14.80;57.00;;;;;;4939982;29;20431;-83
2021/06/01 04:03:37;;;;;;;5.10;2.08;;;14.90;57.40;;;;;;4941407;29;20023;-83
2021/06/01 04:06:03;;;;;;;3.17;1.75;;;14.90;57.70;;;;;;4942890;29;20027;-83
2021/06/01 04:08:29;;;;;;;4.35;1.92;;;14.90;57.10;;;;;;4941629;29;20121;-83
2021/06/01 04:10:54;;;;;;;4.38;1.73;;;14.90;57.10;;;;;;4941246;29;20033;-83
2021/06/01 04:13:20;;;;;;;5.15;2.13;;;14.90;57.50;;;;;;4956397;29;20023;-80
2021/06/01 04:15:45;;;;;;;4.50;2.00;;;14.90;57.30;;;;;;4962474;28;20471;-84
2021/06/01 04:18:11;;;;;;;3.50;1.75;;;15.00;57.30;;;;;;4973538;28;20039;-83
2021/06/01 04:20:36;;;;;;;4.47;1.90;;;14.90;57.60;;;;;;4943762;29;20385;-84
2021/06/01 04:23:02;;;;;;;5.72;2.30;;;15.00;57.50;;;;;;4940432;29;20034;-83
2021/06/01 04:25:28;;;;;;;4.57;1.90;;;15.00;57.20;;;;;;4940280;29;20023;-83
2021/06/01 04:27:53;;;;;;;4.40;2.10;;;15.00;57.20;;;;;;4939611;29;20058;-83
2021/06/01 04:30:19;;;;;;;3.78;1.95;;;15.00;57.40;;;;;;4939261;29;20030;-83
2021/06/01 04:32:45;;;;;;;4.85;1.90;;;15.10;59.20;;;;;;4938831;29;20023;-82
2021/06/01 04:35:11;;;;;;;4.18;2.00;;;15.20;60.20;;;;;;4939936;29;20506;-83
2021/06/01 04:37:36;;;;;;;5.85;1.95;;;15.20;59.10;;;;;;4942359;29;20019;-81
2021/06/01 04:40:03;;;;;;;4.93;2.28;;;15.20;58.70;;;;;;4943929;29;20051;-84
2021/06/01 04:42:29;;;;;;;7.25;1.85;;;15.30;58.50;;;;;;4982081;28;20043;-82
2021/06/01 04:44:55;;;;;;;5.43;2.50;;;15.30;58.90;;;;;;4960485;28;20070;-83
2021/06/01 04:47:20;;;;;;;6.25;1.85;;;15.40;59.00;;;;;;4944654;29;20042;-82
2021/06/01 04:49:48;;;;;;;8.88;2.75;;;15.40;60.30;;;;;;4938607;29;20435;-83
2021/06/01 04:52:13;;;;;;;6.18;2.50;;;15.50;59.00;;;;;;4938876;29;20027;-83
2021/06/01 04:54:39;;;;;;;5.03;1.95;;;15.50;58.80;;;;;;4938771;29;20097;-82
2021/06/01 04:57:06;;;;;;;6.15;2.40;;;15.60;59.40;;;;;;4938778;29;20495;-81
2021/06/01 04:59:32;;;;;;;4.90;2.80;;;15.70;59.20;;;;;;4949539;29;20031;-83
2021/06/01 05:01:58;;;;;;;8.10;2.60;;;15.80;57.80;;;;;;4938225;29;20025;-82
2021/06/01 05:04:23;;;;;;;4.78;2.20;;;15.70;57.60;;;;;;4938642;29;20120;-83
2021/06/01 05:06:49;;;;;;;4.25;2.10;;;15.90;58.30;;;;;;4938164;29;20127;-83
2021/06/01 05:09:14;;;;;;;5.60;2.45;;;15.90;57.90;;;;;;4938350;29;20053;-84
2021/06/01 05:11:40;;;;;;;6.22;2.92;;;16.00;57.10;;;;;;4938343;29;20034;-83
2021/06/01 05:14:10;;;;;;;5.35;2.10;;;16.10;56.40;;;;;;4938434;29;20023;-83
2021/06/01 05:16:36;;;;;;;7.38;3.28;;;16.10;56.10;;;;;;4938364;29;20023;-84
2021/06/01 05:19:02;;;;;;;5.10;2.47;;;16.20;56.60;;;;;;4938067;29;20034;-82
2021/06/01 05:21:27;;;;;;;5.63;2.63;;;16.20;55.20;;;;;;4938822;29;20373;-82
2021/06/01 05:23:53;;;;;;;5.78;3.17;;;16.20;55.90;;;;;;4938273;29;20027;-82
2021/06/01 05:26:18;;;;;;;6.80;2.08;;;16.40;56.80;;;;;;4939041;29;20388;-82
2021/06/01 05:28:44;;;;;;;4.97;2.40;;;16.40;58.70;;;;;;4938733;29;20031;-82
2021/06/01 05:31:17;;;;;;;3.95;1.90;;;16.50;55.80;;;;;;4938856;29;20122;-82
2021/06/01 05:33:49;;;;;;;7.15;2.55;;;16.60;58.60;;;;;;4938421;29;20031;-82
2021/06/01 05:36:14;;;;;;;7.68;3.50;;;16.70;55.80;;;;;;4939646;29;20033;-81
2021/06/01 05:38:40;;;;;;;5.97;2.95;;;16.80;54.10;;;;;;4938503;28;20127;-83
2021/06/01 05:41:06;;;;;;;9.52;3.47;;;16.80;54.00;;;;;;4938586;29;20051;-83
2021/06/01 05:43:32;;;;;;;5.28;2.10;;;16.90;53.60;;;;;;4939192;29;20082;-84
2021/06/01 05:45:58;;;;;;;5.85;2.45;;;16.90;55.40;;;;;;4942192;29;20024;-84
2021/06/01 05:48:24;;;;;;;5.47;2.63;;;17.00;56.60;;;;;;4940125;29;20032;-86
2021/06/01 05:50:50;;;;;;;6.38;2.92;;;17.10;54.10;;;;;;4940711;29;20031;-83
2021/06/01 05:53:17;;;;;;;5.40;3.10;;;17.20;54.50;;;;;;4941297;29;20015;-84
2021/06/01 05:55:45;;;;;;;5.60;3.17;;;17.30;53.20;;;;;;4945066;29;20023;-84
2021/06/01 05:58:10;;;;;;;6.65;2.28;;;17.50;54.10;;;;;;4944664;29;20062;-85
2021/06/01 06:00:36;;;;;;;5.20;2.95;;;17.50;53.70;;;;;;4946234;29;20031;-84
2021/06/01 06:03:03;;;;;;;6.97;2.53;;;17.70;54.00;;;;;;4959946;28;20047;-84
2021/06/01 06:05:29;;;;;;;7.10;2.92;;;17.70;54.30;;;;;;4938857;29;20114;-84
2021/06/01 06:07:54;;;;;;;6.63;3.45;;;17.80;51.80;;;;;;4939188;29;20138;-84
2021/06/01 06:10:21;;;;;;;5.00;2.17;;;17.90;51.80;;;;;;4941680;29;20067;-83
2021/06/01 06:12:46;;;;;;;7.15;2.92;;;18.00;53.70;;;;;;4944804;29;20023;-85
2021/06/01 06:15:15;;;;;;;6.18;3.17;;;18.10;54.80;;;;;;4943392;29;20074;-83
2021/06/01 06:17:52;;;;;;;4.70;2.13;;;18.20;51.60;;;;;;4958101;28;20027;-84
2021/06/01 06:20:18;;;;;;;5.20;2.55;;;18.40;54.40;;;;;;4955234;28;20055;-83
2021/06/01 06:22:44;;;;;;;4.90;2.38;;;18.50;55.50;;;;;;4960253;28;20039;-83
2021/06/01 06:25:11;;;;;;;8.02;2.85;;;18.60;55.60;;;;;;4974451;28;20035;-85
2021/06/01 06:27:37;;;;;;;6.00;2.92;;;18.70;50.80;;;;;;4963046;28;20031;-85
2021/06/01 06:30:08;;;;;;;6.20;3.10;;;18.70;52.40;;;;;;4977670;28;20027;-83
2021/06/01 06:32:34;;;;;;;7.43;3.42;;;18.80;51.70;;;;;;4958964;28;20027;-83
2021/06/01 06:35:00;;;;;;;6.63;2.83;;;18.80;49.70;;;;;;4963644;28;20105;-83
2021/06/01 06:37:26;;;;;;;8.95;3.85;;;18.90;50.70;;;;;;4972024;28;20023;-84
2021/06/01 06:39:58;;;;;;;6.13;3.25;;;19.00;53.60;;;;;;4976755;28;20114;-84
2021/06/01 06:42:24;;;;;;;5.35;2.60;;;19.10;51.10;;;;;;4955923;28;20019;-83
2021/06/01 06:44:53;;;;;;;10.00;4.50;;;19.30;49.80;;;;;;4949861;29;20444;-84
2021/06/01 06:47:27;;;;;;;9.00;2.22;;;19.40;49.20;;;;;;4944724;29;20047;-83
2021/06/01 06:49:54;;;;;;;5.80;2.20;;;19.50;50.50;;;;;;4957588;28;20028;-82
2021/06/01 06:52:29;;;;;;;7.13;3.13;;;19.70;52.20;;;;;;4956644;28;20030;-83
2021/06/01 06:55:00;;;;;;;5.25;2.95;;;19.80;50.70;;;;;;4952233;29;20097;-84
2021/06/01 06:57:26;;;;;;;7.07;2.45;;;19.90;50.40;;;;;;4957576;28;20089;-83
2021/06/01 06:59:51;;;;;;;9.38;4.40;;;20.00;51.50;;;;;;4962619;28;20022;-84
2021/06/01 07:02:33;;;;;;;7.80;4.25;;;20.10;49.30;;;;;;4962987;28;20023;-91
2021/06/01 07:05:01;;;;;;;6.50;3.78;;;20.20;47.30;;;;;;4969309;28;20027;-90
2021/06/01 07:14:59;;;;;;;6.80;2.75;;;20.40;47.70;;;;;;4911345;29;20048;-90
2021/06/01 07:18:37;;;;;;;7.20;3.08;;;20.50;53.10;;;;;;4897083;29;20037;-90
2021/06/01 07:25:34;;;;;;;6.43;3.75;;;20.80;50.70;;;;;;4927525;29;20232;-88
2021/06/01 07:29:02;;;;;;;9.13;4.05;;;21.00;49.60;;;;;;4893300;29;20044;-89
2021/06/01 07:32:43;;;;;;;5.63;3.20;;;21.10;48.20;;;;;;4889222;29;20097;-90
2021/06/01 07:50:06;;;;;;;7.60;3.80;;;21.90;48.10;;;;;;4832035;29;20099;-89
2021/06/01 07:57:06;;;;;;;9.90;4.18;;;22.20;50.30;;;;;;4763459;30;20050;-88
2021/06/01 08:00:15;;;;;;;7.38;3.03;;;22.30;49.20;;;;;;4726252;30;20038;-88
2021/06/01 08:03:48;;;;;;;8.68;4.20;;;22.40;49.10;;;;;;4714825;30;20048;-90
2021/06/01 08:06:36;;;;;;;5.30;2.10;;;22.50;48.00;;;;;;4801400;29;20066;-89
2021/06/01 08:09:18;;;;;;;7.90;4.40;;;22.70;51.20;;;;;;4876606;29;20053;-91
2021/06/01 08:12:53;;;;;;;7.13;4.00;;;22.90;47.80;;;;;;4871506;29;20097;-89
2021/06/01 08:15:43;;;;;;;12.10;4.45;;;23.10;46.00;;;;;;4881461;29;20530;-90
2021/06/01 08:18:13;;;;;;;6.70;3.83;;;23.20;46.70;;;;;;4870460;29;20034;-91
2021/06/01 08:21:04;;;;;;;5.50;3.00;;;23.30;47.00;;;;;;4893848;29;20036;-89
2021/06/01 08:23:56;;;;;;;10.82;4.53;;;23.40;47.10;;;;;;4929723;29;20032;-89
2021/06/01 08:26:40;;;;;;;5.78;2.95;;;23.50;46.10;;;;;;4950847;29;20084;-88
2021/06/01 08:29:16;;;;;;;10.25;4.57;;;23.60;46.90;;;;;;4959550;29;20020;-89
2021/06/01 08:32:04;;;;;;;9.48;3.78;;;23.70;44.30;;;;;;4944583;29;20028;-88
2021/06/01 08:34:31;;;;;;;5.35;2.92;;;23.70;46.30;;;;;;4934723;29;20028;-83
2021/06/01 08:36:57;;;;;;;8.95;5.30;;;23.80;47.00;;;;;;4928601;29;20028;-85
2021/06/01 08:39:26;;;;;;;7.07;3.83;;;23.80;44.50;;;;;;4921150;29;20119;-81
2021/06/01 08:41:54;;;;;;;16.88;4.68;;;23.80;45.20;;;;;;4944221;29;20106;-88
2021/06/01 08:44:20;;;;;;;8.30;3.53;;;23.80;43.90;;;;;;4929993;29;20023;-88
2021/06/01 08:46:54;;;;;;;5.82;3.03;;;23.80;45.80;;;;;;4942535;29;20023;-88
2021/06/01 08:49:20;;;;;;;5.68;3.42;;;23.90;45.40;;;;;;4923606;29;20063;-87
2021/06/01 08:51:47;;;;;;;5.40;2.95;;;23.80;44.20;;;;;;4924279;29;20024;-86
2021/06/01 08:54:13;;;;;;;5.60;2.00;;;24.00;47.20;;;;;;4923703;29;20024;-84
2021/06/01 08:56:39;;;;;;;10.07;4.05;;;24.20;49.10;;;;;;4939152;29;20032;-86
2021/06/01 08:59:04;;;;;;;6.80;2.58;;;24.50;43.70;;;;;;4924246;29;20029;-88
2021/06/01 09:01:30;;;;;;;5.72;2.25;;;24.60;44.10;;;;;;4924420;29;20028;-83
2021/06/01 09:04:03;;;;;;;5.68;3.40;;;24.60;42.90;;;;;;4927504;29;20031;-90
2021/06/01 09:12:26;;;;;;;9.95;4.55;;;24.70;45.10;;;;;;4895268;29;20065;-88
2021/06/01 09:23:02;;;;;;;5.78;3.28;;;25.20;47.50;;;;;;4946025;29;20035;-90
2021/06/01 09:28:04;;;;;;;4.97;2.40;;;25.20;42.50;;;;;;4963258;29;20051;-92
2021/06/01 09:34:41;;;;;;;7.45;3.85;;;25.50;41.30;;;;;;4916399;29;20042;-93
2021/06/01 09:38:00;;;;;;;7.68;3.33;;;25.50;43.60;;;;;;4898796;29;20032;-90
2021/06/01 09:40:29;;;;;;;7.82;3.85;;;25.70;42.90;;;;;;4863218;29;20061;-90
2021/06/01 09:42:56;;;;;;;4.88;2.80;;;25.80;40.30;;;;;;4887297;29;20032;-90
2021/06/01 09:45:28;;;;;;;6.20;2.88;;;25.90;46.10;;;;;;4893699;29;20021;-90
2021/06/01 09:47:55;;;;;;;8.82;3.70;;;26.10;46.10;;;;;;4902713;29;20047;-89
2021/06/01 09:50:47;;;;;;;6.25;2.90;;;26.30;44.50;;;;;;4893971;29;20386;-87
2021/06/01 09:53:38;;;;;;;4.18;2.53;;;26.40;41.90;;;;;;4889710;29;20047;-90
2021/06/01 09:56:05;;;;;;;7.25;3.30;;;26.50;46.60;;;;;;4905445;29;20036;-90
2021/06/01 09:58:34;;;;;;;6.38;2.33;;;26.70;37.80;;;;;;4890510;29;20045;-89
2021/06/01 10:01:01;;;;;;;3.33;1.77;;;26.80;38.30;;;;;;4889114;29;20061;-88
2021/06/01 10:03:36;;;;;;;5.75;2.03;;;26.80;44.10;;;;;;4897572;29;20056;-87
2021/06/01 10:06:02;;;;;;;3.35;1.60;;;27.00;41.70;;;;;;4947556;29;20032;-87
2021/06/01 10:08:29;;;;;;;6.18;2.90;;;27.00;47.30;;;;;;4947910;29;20027;-88
2021/06/01 10:10:58;;;;;;;3.67;1.70;;;27.10;43.50;;;;;;4948942;29;20203;-88
2021/06/01 10:13:27;;;;;;;4.45;1.73;;;27.10;42.80;;;;;;4949077;29;20027;-89
2021/06/01 10:15:56;;;;;;;3.78;1.80;;;27.10;41.50;;;;;;4947094;28;20044;-88
2021/06/01 10:18:29;;;;;;;5.57;1.85;;;27.10;41.70;;;;;;4943043;29;20420;-89
2021/06/01 10:21:00;;;;;;;4.60;2.03;;;27.30;44.00;;;;;;4944752;29;20023;-89
2021/06/01 10:23:33;;;;;;;5.30;2.40;;;27.50;45.70;;;;;;4957438;28;20054;-90
2021/06/01 10:25:59;;;;;;;5.28;2.05;;;27.60;39.20;;;;;;4958952;29;20034;-88
2021/06/01 10:28:36;;;;;;;4.88;2.08;;;27.50;38.80;;;;;;4947899;29;20110;-87
2021/06/01 10:31:05;;;;;;;3.78;1.80;;;27.50;38.00;;;;;;4948914;29;20027;-88
2021/06/01 10:33:42;;;;;;;6.57;2.30;;;27.70;42.50;;;;;;4952829;29;20053;-87
2021/06/01 10:52:25;;;;;;;4.57;1.70;;;28.30;42.60;;;;;;4963714;29;20039;-87
2021/06/01 10:55:05;;;;;;;4.28;1.70;;;28.50;43.20;;;;;;4944916;29;20543;-87
2021/06/01 10:57:55;;;;;;;3.25;1.50;;;28.40;30.00;;;;;;4943829;29;20019;-86
2021/06/01 11:03:09;;;;;;;3.53;1.63;;;28.60;35.80;;;;;;4960165;29;20036;-87
2021/06/01 11:06:00;;;;;;;3.90;1.58;;;28.60;44.50;;;;;;4943253;29;20030;-87
2021/06/01 11:08:44;;;;;;;3.53;1.70;;;28.70;42.60;;;;;;4942467;29;20059;-88
2021/06/01 11:11:33;;;;;;;4.57;1.98;;;28.70;41.70;;;;;;4943907;29;20051;-88
2021/06/01 11:14:02;;;;;;;2.40;1.38;;;29.00;42.80;;;;;;4943130;29;20118;-86
2021/06/01 11:16:57;;;;;;;5.75;2.00;;;29.10;46.70;;;;;;4943128;29;20020;-86
2021/06/01 11:19:29;;;;;;;6.05;2.03;;;29.10;39.40;;;;;;4941567;29;20031;-85
2021/06/01 11:21:59;;;;;;;3.15;1.60;;;29.20;36.60;;;;;;4941027;29;20392;-85
2021/06/01 11:32:57;;;;;;;2.53;1.30;;;29.40;37.90;;;;;;4954490;29;20036;-85
2021/06/01 11:35:25;;;;;;;5.75;1.85;;;29.30;48.00;;;;;;4943536;29;20015;-83
2021/06/01 11:40:27;;;;;;;3.92;2.25;;;29.30;42.30;;;;;;4957793;29;20184;-80
2021/06/01 11:43:22;;;;;;;7.03;1.80;;;29.20;46.40;;;;;;4940320;29;20031;-87
2021/06/01 11:51:16;;;;;;;4.13;1.98;;;29.60;43.90;;;;;;4958476;29;20039;-85
2021/06/01 11:54:07;;;;;;;3.67;1.30;;;29.50;34.80;;;;;;4940953;29;20483;-84
2021/06/01 11:57:13;;;;;;;3.63;2.20;;;29.20;41.40;;;;;;4941278;29;20058;-85
2021/06/01 12:18:45;;;;;;;3.17;1.60;;;29.70;38.80;;;;;;4969905;28;20230;-85
2021/06/01 12:21:23;;;;;;;4.95;1.42;;;29.60;41.30;;;;;;4941738;29;20038;-84
2021/06/01 12:24:03;;;;;;;3.90;1.80;;;29.80;47.30;;;;;;4942528;29;20047;-84
2021/06/01 12:26:50;;;;;;;4.38;1.50;;;30.00;36.90;;;;;;4940192;29;20023;-83
2021/06/01 12:32:24;;;;;;;3.70;1.42;;;29.70;43.70;;;;;;4957846;29;20105;-83
2021/06/01 12:43:50;;;;;;;18.70;4.22;;;30.10;40.70;;;;;;4972865;29;20050;-81
2021/06/01 13:19:45;;;;;;;4.85;1.95;;;30.50;45.20;;;;;;4961203;29;20038;-84
2021/06/01 13:37:02;;;;;;;5.55;1.92;;;30.70;38.60;;;;;;4907887;29;20058;-82
2021/06/01 13:47:22;;;;;;;3.75;2.13;;;30.70;46.50;;;;;;4959023;29;20083;-90
2021/06/01 13:49:51;;;;;;;5.28;1.58;;;30.70;45.00;;;;;;4945002;29;20403;-81
2021/06/01 14:00:48;;;;;;;4.13;1.70;;;30.90;45.90;;;;;;4859618;29;20483;-79
2021/06/01 14:15:14;;;;;;;5.97;1.50;;;30.40;46.00;;;;;;4962468;29;20054;-80
2021/06/01 14:30:22;;;;;;;2.80;1.20;;;29.80;45.10;;;;;;4958406;29;20042;-80
2021/06/01 15:49:21;;;;;;;2.53;1.35;;;29.20;46.00;;;;;;4958754;29;20038;-83
2021/06/01 15:52:24;;;;;;;2.08;0.98;;;29.10;40.60;;;;;;4942877;29;20051;-83
2021/06/01 16:14:14;;;;;;;4.72;1.52;;;28.50;46.60;;;;;;4956721;29;20038;-83
2021/06/01 16:30:29;;;;;;;3.40;1.50;;;28.20;35.70;;;;;;4956690;29;20510;-81
2021/06/01 16:33:19;;;;;;;3.67;1.90;;;28.00;37.60;;;;;;4939131;29;20028;-82
2021/06/01 17:03:25;;;;;;;2.20;1.20;;;27.80;47.00;;;;;;4959969;29;20071;-81
2021/06/01 17:05:55;;;;;;;2.55;1.00;;;27.80;44.40;;;;;;4940637;29;20382;-82
2021/06/01 17:08:39;;;;;;;1.75;1.10;;;27.60;45.20;;;;;;4940060;29;20081;-82
2021/06/01 17:11:14;;;;;;;2.47;1.30;;;27.40;44.40;;;;;;4955558;29;20078;-82
2021/06/01 17:13:55;;;;;;;2.40;1.40;;;27.40;48.40;;;;;;4955533;29;20030;-80
2021/06/01 17:35:13;;;;;;;4.35;1.65;;;27.00;51.00;;;;;;4959179;28;20035;-80
2021/06/01 17:37:39;;;;;;;3.60;1.00;;;26.90;46.90;;;;;;4938403;29;20106;-82
2021/06/01 17:40:08;;;;;;;2.67;1.10;;;26.80;44.40;;;;;;4955911;29;20098;-82
2021/06/01 17:42:35;;;;;;;1.95;1.00;;;26.80;50.60;;;;;;4939944;29;20027;-82
2021/06/01 17:45:03;;;;;;;2.20;1.17;;;26.70;50.30;;;;;;4957151;29;20027;-82
2021/06/01 17:47:34;;;;;;;2.45;1.10;;;26.70;51.80;;;;;;4944535;29;20020;-81
2021/06/01 17:50:02;;;;;;;2.60;1.15;;;26.60;49.20;;;;;;4953318;29;20094;-82
2021/06/01 17:52:30;;;;;;;2.55;1.25;;;26.50;50.00;;;;;;4948835;29;20027;-82
2021/06/01 17:54:57;;;;;;;3.17;1.50;;;26.40;49.00;;;;;;4955591;29;20022;-81
2021/06/01 17:57:28;;;;;;;4.75;1.42;;;26.30;48.10;;;;;;4937699;29;20035;-82
2021/06/01 18:00:00;;;;;;;4.50;1.45;;;26.20;41.30;;;;;;4937986;29;20024;-82
2021/06/01 18:02:26;;;;;;;2.80;1.02;;;26.20;47.20;;;;;;4938027;29;20038;-81
2021/06/01 18:04:54;;;;;;;3.58;1.52;;;26.20;50.90;;;;;;4955022;29;20032;-82
2021/06/01 18:07:36;;;;;;;5.75;1.58;;;26.20;46.00;;;;;;4938477;29;20364;-81
2021/06/01 19:02:08;;;;;;;4.80;1.60;;;24.30;54.20;;;;;;4960677;29;20038;-80
2021/06/01 19:42:27;;;;;;;3.25;1.55;;;23.40;56.90;;;;;;4958945;29;20507;-82
2021/06/01 19:51:45;;;;;;;4.57;1.83;;;22.80;55.90;;;;;;4957349;29;20046;-81
2021/06/01 19:54:13;;;;;;;2.72;1.20;;;22.80;57.00;;;;;;4940055;29;20475;-82
2021/06/01 19:56:39;;;;;;;2.40;1.42;;;22.70;57.80;;;;;;4959574;29;20032;-82
2021/06/01 19:59:05;;;;;;;5.72;1.92;;;22.70;58.20;;;;;;4941189;29;20490;-82
2021/06/01 20:01:31;;;;;;;2.25;1.33;;;22.60;57.60;;;;;;4939877;29;20031;-82
2021/06/01 20:04:00;;;;;;;3.33;1.63;;;22.60;57.60;;;;;;4939729;29;20396;-82
2021/06/01 20:06:26;;;;;;;3.78;1.60;;;22.50;55.70;;;;;;4940221;29;20058;-82
2021/06/01 20:08:52;;;;;;;5.32;2.03;;;22.40;54.80;;;;;;4939210;29;20062;-79
2021/06/01 20:11:19;;;;;;;4.07;2.00;;;22.40;55.20;;;;;;4939700;29;20393;-81
2021/06/01 20:13:47;;;;;;;4.55;2.00;;;22.30;53.90;;;;;;4939124;29;20038;-77
2021/06/01 20:16:15;;;;;;;4.25;1.60;;;22.30;54.20;;;;;;4957053;28;20131;-79
2021/06/01 20:18:42;;;;;;;4.10;1.77;;;22.20;54.30;;;;;;4939670;29;20035;-79
2021/06/01 20:21:12;;;;;;;5.82;2.25;;;22.20;53.60;;;;;;4956704;29;20055;-78
2021/06/01 20:23:42;;;;;;;5.25;1.73;;;22.10;52.50;;;;;;4939428;29;20034;-78
2021/06/01 20:26:13;;;;;;;4.97;2.13;;;22.00;54.40;;;;;;4956549;29;20488;-82
2021/06/01 20:28:46;;;;;;;9.13;2.47;;;22.00;55.50;;;;;;4943094;29;20027;-86
2021/06/01 20:31:36;;;;;;;4.40;2.03;;;21.90;54.30;;;;;;4945219;29;20054;-89
2021/06/01 20:34:02;;;;;;;4.40;1.67;;;21.90;54.70;;;;;;4969849;29;20038;-85
2021/06/01 20:36:28;;;;;;;7.03;2.20;;;21.80;54.20;;;;;;4965051;28;20031;-86
2021/06/01 20:38:56;;;;;;;4.63;1.65;;;21.80;55.70;;;;;;4946514;29;20023;-86
2021/06/01 20:41:57;;;;;;;5.40;2.20;;;21.70;56.20;;;;;;4944128;29;20452;-85
2021/06/01 20:44:27;;;;;;;5.57;1.90;;;21.70;55.20;;;;;;4938498;29;20098;-86
2021/06/01 20:46:55;;;;;;;4.63;2.15;;;21.60;56.90;;;;;;4944392;29;20111;-87
2021/06/01 20:49:23;;;;;;;;;;;21.60;56.60;;;;;;4966027;29;20039;-87
2021/06/01 20:51:50;;;;;;;4.85;2.00;;;21.50;55.70;;;;;;4945925;29;20291;-86
2021/06/01 20:54:16;;;;;;;8.98;2.35;;;21.50;57.40;;;;;;4941738;29;20019;-86
2021/06/01 20:56:42;;;;;;;5.53;2.30;;;21.50;55.60;;;;;;4943534;29;20082;-85
2021/06/01 20:59:10;;;;;;;8.20;2.67;;;21.40;54.40;;;;;;4939920;29;20020;-87
2021/06/01 21:01:36;;;;;;;5.05;2.00;;;21.30;54.00;;;;;;4949413;29;20066;-87